createdAt,value
2022-08-05T00:00:50.584Z,93624.28
2022-08-05T00:01:52.243Z,93625.94
2022-08-05T00:02:54.451Z,93623.00
2022-08-05T00:03:57.084Z,93627.97
2022-08-05T00:04:59.049Z,93622.94
2022-08-05T00:06:05.693Z,93617.00
2022-08-05T00:07:59.058Z,93619.72
2022-08-05T00:08:45.127Z,93618.84
2022-08-05T00:09:49.052Z,93623.97
2022-08-05T00:10:50.600Z,93627.47
2022-08-05T00:11:59.882Z,93620.19
2022-08-05T00:13:01.629Z,93617.53
2022-08-05T00:14:12.025Z,93618.50
2022-08-05T00:15:56.162Z,93626.06
2022-08-05T00:16:53.044Z,93627.41
2022-08-05T00:17:55.304Z,93619.50
2022-08-05T00:18:57.179Z,93624.88
2022-08-05T00:20:03.071Z,93623.78
2022-08-05T00:21:06.481Z,93619.09
2022-08-05T00:22:11.282Z,93618.00
2022-08-05T00:23:13.374Z,93616.59
2022-08-05T00:24:24.295Z,93620.63
2022-08-05T00:25:26.671Z,93617.59
2022-08-05T00:26:51.692Z,93617.72
2022-08-05T00:27:53.790Z,93610.38
2022-08-05T00:28:56.867Z,93612.78
2022-08-05T00:30:00.461Z,93614.91
2022-08-05T00:31:05.644Z,93609.22
2022-08-05T00:32:12.533Z,93615.13
2022-08-05T00:34:54.150Z,93621.63
2022-08-05T00:34:54.968Z,93618.94
2022-08-05T00:36:16.594Z,93611.13
2022-08-05T00:37:20.959Z,93617.53
2022-08-05T00:38:28.798Z,93620.84
2022-08-05T00:39:44.347Z,93619.22
2022-08-05T00:40:58.580Z,93616.28
2022-08-05T00:42:01.345Z,93620.91
2022-08-05T00:43:07.673Z,93613.09
2022-08-05T00:44:09.380Z,93619.69
2022-08-05T00:45:13.488Z,93622.75
2022-08-05T00:46:15.183Z,93616.97
2022-08-05T00:47:17.534Z,93623.53
2022-08-05T00:48:27.743Z,93622.22
2022-08-05T00:49:51.301Z,93610.31
2022-08-05T00:50:53.510Z,93612.78
2022-08-05T00:51:55.130Z,93613.31
2022-08-05T00:52:56.666Z,93617.38
2022-08-05T00:54:02.432Z,93619.50
2022-08-05T00:55:06.617Z,93610.81
2022-08-05T00:56:08.295Z,93613.50
2022-08-05T00:57:09.925Z,93610.53
2022-08-05T00:58:12.970Z,93607.00
2022-08-05T00:59:14.839Z,93607.00
2022-08-05T01:00:16.985Z,93609.72
2022-08-05T01:01:42.191Z,93611.63
2022-08-05T01:02:39.993Z,93615.00
2022-08-05T01:03:42.136Z,93610.97
2022-08-05T01:04:43.643Z,93604.19
2022-08-05T01:05:45.144Z,93610.38
2022-08-05T01:06:48.901Z,93607.97
2022-08-05T01:08:30.422Z,93609.06
2022-08-05T01:09:14.693Z,93604.44
2022-08-05T01:10:25.805Z,93604.75
2022-08-05T01:11:36.935Z,93605.28
2022-08-05T01:13:03.211Z,93612.56
2022-08-05T01:14:15.477Z,93613.44
2022-08-05T01:15:36.178Z,93606.66
2022-08-05T01:16:44.220Z,93604.44
2022-08-05T01:17:53.986Z,93600.88
2022-08-05T01:19:00.994Z,93595.69
2022-08-05T01:20:11.643Z,93602.69
2022-08-05T01:21:38.325Z,93600.31
2022-08-05T01:22:58.652Z,93600.09
2022-08-05T01:24:16.289Z,93601.09
2022-08-05T01:25:39.891Z,93602.47
2022-08-05T01:26:59.490Z,93608.69
2022-08-05T01:28:15.547Z,93604.66
2022-08-05T01:29:23.137Z,93609.84
2022-08-05T01:30:33.742Z,93606.88
2022-08-05T01:31:44.930Z,93609.56
2022-08-05T01:32:49.564Z,93609.56
2022-08-05T01:33:56.862Z,93610.38
2022-08-05T01:35:00.910Z,93614.19
2022-08-05T01:36:12.914Z,93610.06
2022-08-05T01:37:28.809Z,93613.59
2022-08-05T01:38:32.643Z,93614.00
2022-08-05T01:39:47.191Z,93614.28
2022-08-05T01:40:50.374Z,93607.00
2022-08-05T01:41:56.015Z,93617.81
2022-08-05T01:43:00.638Z,93615.56
2022-08-05T01:44:09.729Z,93612.06
2022-08-05T01:45:14.138Z,93611.31
2022-08-05T01:46:43.161Z,93608.31
2022-08-05T01:47:43.674Z,93601.72
2022-08-05T01:48:49.646Z,93609.03
2022-08-05T01:50:01.641Z,93608.28
2022-08-05T01:51:12.469Z,93602.94
2022-08-05T01:52:17.878Z,93607.31
2022-08-05T01:53:42.188Z,93612.19
2022-08-05T01:54:48.743Z,93606.44
2022-08-05T01:55:58.812Z,93604.31
2022-08-05T01:58:10.983Z,93602.97
2022-08-05T01:58:40.852Z,93611.38
2022-08-05T01:59:49.570Z,93604.72
2022-08-05T02:00:51.935Z,93607.13
2022-08-05T02:01:56.537Z,93608.25
2022-08-05T02:03:05.861Z,93602.84
2022-08-05T02:04:10.269Z,93609.63
2022-08-05T02:05:14.569Z,93620.22
2022-08-05T02:06:37.090Z,93610.69
2022-08-05T02:07:40.274Z,93621.03
2022-08-05T02:08:54.920Z,93628.63
2022-08-05T02:10:02.000Z,93622.69
2022-08-05T02:11:08.207Z,93628.94
2022-08-05T02:12:20.300Z,93630.56
2022-08-05T02:13:28.290Z,93628.69
2022-08-05T02:15:03.349Z,93626.53
2022-08-05T02:16:16.396Z,93624.41
2022-08-05T02:18:27.525Z,93624.19
2022-08-05T02:18:50.752Z,93626.34
2022-08-05T02:19:58.802Z,93624.22
2022-08-05T02:21:13.241Z,93629.34
2022-08-05T02:22:26.443Z,93625.03
2022-08-05T02:23:33.730Z,93628.91
2022-08-05T02:24:38.970Z,93629.13
2022-08-05T02:25:49.573Z,93632.97
2022-08-05T02:26:59.883Z,93630.84
2022-08-05T02:28:14.079Z,93625.78
2022-08-05T02:29:24.236Z,93619.28
2022-08-05T02:30:51.633Z,93622.63
2022-08-05T02:31:58.057Z,93623.97
2022-08-05T02:33:02.145Z,93624.75
2022-08-05T02:34:09.350Z,93630.72
2022-08-05T02:35:19.100Z,93634.53
2022-08-05T02:36:32.214Z,93637.09
2022-08-05T02:37:35.054Z,93638.81
2022-08-05T02:38:37.666Z,93639.03
2022-08-05T02:39:41.266Z,93634.09
2022-08-05T02:40:44.732Z,93645.22
2022-08-05T02:42:00.781Z,93632.03
2022-08-05T02:43:04.689Z,93639.03
2022-08-05T02:44:11.176Z,93629.44
2022-08-05T02:45:16.230Z,93633.72
2022-08-05T02:46:25.178Z,93633.97
2022-08-05T02:47:58.340Z,93641.44
2022-08-05T02:48:53.811Z,93634.41
2022-08-05T02:49:55.642Z,93641.63
2022-08-05T02:50:59.796Z,93630.13
2022-08-05T02:52:03.689Z,93630.13
2022-08-05T02:53:06.427Z,93634.91
2022-08-05T02:54:36.019Z,93630.59
2022-08-05T02:55:54.746Z,93631.97
2022-08-05T02:56:58.769Z,93628.78
2022-08-05T02:58:10.337Z,93622.34
2022-08-05T02:59:17.484Z,93635.84
2022-08-05T03:00:20.131Z,93628.03
2022-08-05T03:01:25.156Z,93620.59
2022-08-05T03:02:31.570Z,93621.13
2022-08-05T03:04:03.329Z,93627.53
2022-08-05T03:05:15.078Z,93619.00
2022-08-05T03:06:55.387Z,93619.78
2022-08-05T03:08:04.603Z,93627.56
2022-08-05T03:09:02.914Z,93627.09
2022-08-05T03:10:06.993Z,93620.38
2022-08-05T03:11:57.556Z,93619.03
2022-08-05T03:12:39.564Z,93626.03
2022-08-05T03:13:51.438Z,93618.75
2022-08-05T03:15:06.729Z,93628.72
2022-08-05T03:16:08.961Z,93627.63
2022-08-05T03:17:12.154Z,93628.97
2022-08-05T03:18:14.601Z,93635.72
2022-08-05T03:19:33.254Z,93651.00
2022-08-05T03:20:36.294Z,93651.84
2022-08-05T03:21:41.672Z,93653.44
2022-08-05T03:22:50.813Z,93657.47
2022-08-05T03:23:52.747Z,93651.25
2022-08-05T03:24:55.716Z,93670.88
2022-08-05T03:26:31.378Z,93666.31
2022-08-05T03:27:39.177Z,93660.88
2022-08-05T03:28:41.237Z,93661.75
2022-08-05T03:29:45.165Z,93657.94
2022-08-05T03:31:05.103Z,93656.84
2022-08-05T03:32:08.749Z,93661.69
2022-08-05T03:33:11.900Z,93659.53
2022-08-05T03:34:14.173Z,93665.72
2022-08-05T03:35:15.828Z,93666.28
2022-08-05T03:36:17.531Z,93670.56
2022-08-05T03:37:41.650Z,93674.59
2022-08-05T03:38:52.545Z,93675.41
2022-08-05T03:39:59.210Z,93678.34
2022-08-05T03:41:08.547Z,93675.41
2022-08-05T03:42:12.545Z,93671.09
2022-08-05T03:43:58.316Z,93679.47
2022-08-05T03:44:36.918Z,93677.56
2022-08-05T03:45:55.297Z,93685.41
2022-08-05T03:46:59.948Z,93679.75
2022-08-05T03:48:01.587Z,93687.28
2022-08-05T03:49:06.973Z,93691.09
2022-08-05T03:50:10.079Z,93689.75
2022-08-05T03:52:39.019Z,93696.19
2022-08-05T03:54:53.273Z,93686.22
2022-08-05T03:55:52.722Z,93681.41
2022-08-05T03:56:09.283Z,93692.19
2022-08-05T03:57:00.257Z,93693.50
2022-08-05T03:58:03.475Z,93688.97
2022-08-05T03:59:09.873Z,93695.94
2022-08-05T04:00:15.876Z,93693.00
2022-08-05T04:01:21.135Z,93698.63
2022-08-05T04:02:37.544Z,93706.69
2022-08-05T04:04:09.280Z,93708.56
2022-08-05T04:05:10.193Z,93712.34
2022-08-05T04:06:12.331Z,93721.22
2022-08-05T04:07:14.430Z,93709.66
2022-08-05T04:08:35.207Z,93716.66
2022-08-05T04:09:38.636Z,93723.38
2022-08-05T04:10:55.464Z,93713.44
2022-08-05T04:11:57.302Z,93720.16
2022-08-05T04:13:00.560Z,93720.94
2022-08-05T04:14:05.838Z,93716.34
2022-08-05T04:15:08.303Z,93723.28
2022-08-05T04:16:25.508Z,93725.97
2022-08-05T04:17:55.705Z,93711.38
2022-08-05T04:18:57.879Z,93703.84
2022-08-05T04:19:59.617Z,93711.31
2022-08-05T04:21:06.780Z,93706.00
2022-08-05T04:22:12.320Z,93708.66
2022-08-05T04:23:16.111Z,93711.34
2022-08-05T04:24:19.624Z,93716.25
2022-08-05T04:25:56.887Z,93721.13
2022-08-05T04:26:45.524Z,93720.56
2022-08-05T04:27:57.284Z,93718.16
2022-08-05T04:28:59.075Z,93721.34
2022-08-05T04:30:03.716Z,93720.22
2022-08-05T04:31:08.267Z,93720.47
2022-08-05T04:32:12.286Z,93714.47
2022-08-05T04:33:15.493Z,93722.78
2022-08-05T04:34:32.384Z,93712.00
2022-08-05T04:36:15.939Z,93715.53
2022-08-05T04:36:57.594Z,93715.78
2022-08-05T04:38:02.037Z,93712.56
2022-08-05T04:39:08.140Z,93717.09
2022-08-05T04:40:11.302Z,93720.06
2022-08-05T04:41:12.953Z,93716.81
2022-08-05T04:42:15.222Z,93726.50
2022-08-05T04:43:16.938Z,93724.34
2022-08-05T04:44:21.309Z,93720.31
2022-08-05T04:45:48.434Z,93725.97
2022-08-05T04:46:50.264Z,93734.28
2022-08-05T04:47:54.349Z,93732.72
2022-08-05T04:48:59.102Z,93732.66
2022-08-05T04:50:11.453Z,93731.63
2022-08-05T04:51:13.328Z,93729.19
2022-08-05T04:52:16.667Z,93733.75
2022-08-05T04:53:20.187Z,93729.97
2022-08-05T04:54:22.551Z,93737.22
2022-08-05T04:56:05.035Z,93743.63
2022-08-05T04:56:47.215Z,93740.91
2022-08-05T04:57:54.144Z,93746.81
2022-08-05T04:58:56.488Z,93743.50
2022-08-05T04:59:58.644Z,93743.31
2022-08-05T05:01:00.911Z,93742.25
2022-08-05T05:02:34.891Z,93739.31
2022-08-05T05:03:23.928Z,93737.66
2022-08-05T05:04:25.542Z,93745.44
2022-08-05T05:05:29.132Z,93742.28
2022-08-05T05:06:39.103Z,93737.44
2022-08-05T05:07:56.203Z,93739.03
2022-08-05T05:09:02.293Z,93739.31
2022-08-05T05:10:07.590Z,93743.13
2022-08-05T05:11:09.110Z,93740.38
2022-08-05T05:12:10.627Z,93741.72
2022-08-05T05:13:15.100Z,93740.72
2022-08-05T05:14:16.642Z,93739.38
2022-08-05T05:15:57.341Z,93742.69
2022-08-05T05:16:39.992Z,93738.41
2022-08-05T05:17:56.899Z,93743.16
2022-08-05T05:19:18.550Z,93740.34
2022-08-05T05:20:21.104Z,93751.97
2022-08-05T05:21:28.117Z,93752.22
2022-08-05T05:22:34.760Z,93744.38
2022-08-05T05:24:03.781Z,93752.97
2022-08-05T05:25:16.630Z,93746.56
2022-08-05T05:26:18.739Z,93748.47
2022-08-05T05:27:20.240Z,93751.66
2022-08-05T05:28:22.923Z,93749.25
2022-08-05T05:30:03.586Z,93744.69
2022-08-05T05:30:49.698Z,93744.69
2022-08-05T05:31:51.497Z,93745.25
2022-08-05T05:32:54.398Z,93750.38
2022-08-05T05:33:59.183Z,93745.75
2022-08-05T05:35:04.334Z,93742.84
2022-08-05T05:36:08.246Z,93753.81
2022-08-05T05:37:13.025Z,93756.25
2022-08-05T05:38:27.063Z,93751.03
2022-08-05T05:39:34.374Z,93760.44
2022-08-05T05:40:37.655Z,93767.72
2022-08-05T05:41:42.970Z,93768.25
2022-08-05T05:42:56.299Z,93757.19
2022-08-05T05:44:00.604Z,93766.59
2022-08-05T05:45:02.908Z,93764.44
2022-08-05T05:46:05.484Z,93772.72
2022-08-05T05:47:13.174Z,93782.66
2022-08-05T05:48:27.762Z,93785.59
2022-08-05T05:49:29.469Z,93788.06
2022-08-05T05:50:31.303Z,93789.72
2022-08-05T05:51:49.645Z,93777.56
2022-08-05T05:52:51.642Z,93790.56
2022-08-05T05:53:57.260Z,93790.56
2022-08-05T05:55:07.436Z,93789.28
2022-08-05T05:56:26.008Z,93800.28
2022-08-05T05:57:43.023Z,93795.78
2022-08-05T05:58:54.659Z,93802.41
2022-08-05T05:59:57.405Z,93799.25
2022-08-05T06:01:12.263Z,93813.28
2022-08-05T06:02:15.043Z,93815.13
2022-08-05T06:03:40.757Z,93829.91
2022-08-05T06:04:39.869Z,93809.53
2022-08-05T06:05:41.448Z,93820.09
2022-08-05T06:06:47.392Z,93814.56
2022-08-05T06:08:01.254Z,93805.94
2022-08-05T06:09:05.486Z,93820.31
2022-08-05T06:10:10.631Z,93828.78
2022-08-05T06:11:13.448Z,93829.97
2022-08-05T06:12:15.062Z,93818.88
2022-08-05T06:13:17.156Z,93825.28
2022-08-05T06:14:19.281Z,93842.16
2022-08-05T06:15:24.119Z,93829.31
2022-08-05T06:16:30.168Z,93825.63
2022-08-05T06:17:52.815Z,93826.19
2022-08-05T06:18:55.914Z,93828.72
2022-08-05T06:20:01.733Z,93841.16
2022-08-05T06:21:03.626Z,93835.03
2022-08-05T06:22:09.748Z,93832.66
2022-08-05T06:23:11.292Z,93834.47
2022-08-05T06:24:14.777Z,93840.94
2022-08-05T06:25:24.479Z,93840.41
2022-08-05T06:26:40.000Z,93841.59
2022-08-05T06:28:11.583Z,93846.44
2022-08-05T06:29:25.318Z,93844.03
2022-08-05T06:30:36.356Z,93846.44
2022-08-05T06:31:38.236Z,93846.53
2022-08-05T06:32:43.545Z,93834.25
2022-08-05T06:34:07.037Z,93847.50
2022-08-05T06:35:15.473Z,93853.28
2022-08-05T06:36:53.706Z,93858.19
2022-08-05T06:37:57.728Z,93859.47
2022-08-05T06:39:01.100Z,93852.03
2022-08-05T06:40:03.209Z,93858.56
2022-08-05T06:41:07.844Z,93854.03
2022-08-05T06:42:09.814Z,93853.31
2022-08-05T06:43:59.693Z,93848.44
2022-08-05T06:44:35.237Z,93848.72
2022-08-05T06:46:02.882Z,93835.53
2022-08-05T06:46:58.398Z,93849.53
2022-08-05T06:48:37.285Z,93853.34
2022-08-05T06:50:00.282Z,93832.88
2022-08-05T06:50:47.497Z,93847.69
2022-08-05T06:51:51.522Z,93829.91
2022-08-05T06:53:04.047Z,93860.88
2022-08-05T06:54:19.018Z,93858.16
2022-08-05T06:55:21.006Z,93853.31
2022-08-05T06:56:34.380Z,93852.25
2022-08-05T06:58:02.663Z,93806.19
2022-08-05T06:58:58.027Z,93836.59
2022-08-05T06:59:59.556Z,93843.31
2022-08-05T07:01:05.804Z,93864.34
2022-08-05T07:02:07.619Z,93839.03
2022-08-05T07:03:09.786Z,93791.97
2022-08-05T07:04:13.991Z,93856.00
2022-08-05T07:05:18.741Z,93869.47
2022-08-05T07:06:21.114Z,93866.75
2022-08-05T07:07:24.087Z,93875.69
2022-08-05T07:08:37.242Z,93873.00
2022-08-05T07:09:43.382Z,93878.09
2022-08-05T07:10:52.497Z,93871.63
2022-08-05T07:11:56.428Z,93871.66
2022-08-05T07:13:03.445Z,93856.81
2022-08-05T07:14:05.054Z,93865.41
2022-08-05T07:15:08.854Z,93858.69
2022-08-05T07:16:12.136Z,93861.09
2022-08-05T07:18:08.298Z,93859.22
2022-08-05T07:18:53.482Z,93853.88
2022-08-05T07:21:16.386Z,93819.94
2022-08-05T07:22:29.134Z,93813.72
2022-08-05T07:23:31.882Z,93851.34
2022-08-05T07:24:35.101Z,93844.41
2022-08-05T07:25:55.984Z,93840.38
2022-08-05T07:26:59.795Z,93851.41
2022-08-05T07:28:08.232Z,93833.91
2022-08-05T07:29:13.391Z,93856.81
2022-08-05T07:30:23.909Z,93876.94
2022-08-05T07:31:40.883Z,93870.47
2022-08-05T07:32:53.597Z,93864.03
2022-08-05T07:33:55.215Z,93872.06
2022-08-05T07:35:01.423Z,93872.56
2022-08-05T07:36:22.912Z,93857.84
2022-08-05T07:37:25.265Z,93856.47
2022-08-05T07:38:43.694Z,93864.00
2022-08-05T07:40:26.480Z,93874.03
2022-08-05T07:42:09.069Z,93854.94
2022-08-05T07:42:33.927Z,93880.75
2022-08-05T07:43:37.993Z,93879.41
2022-08-05T07:44:39.508Z,93870.50
2022-08-05T07:45:57.192Z,93878.06
2022-08-05T07:47:00.020Z,93869.44
2022-08-05T07:48:02.019Z,93871.88
2022-08-05T07:49:06.142Z,93878.09
2022-08-05T07:50:10.164Z,93892.38
2022-08-05T07:51:23.288Z,93878.91
2022-08-05T07:52:37.771Z,93887.22
2022-08-05T07:53:50.292Z,93900.47
2022-08-05T07:54:52.726Z,93881.81
2022-08-05T07:56:05.777Z,93885.06
2022-08-05T07:57:17.720Z,93884.53
2022-08-05T07:58:57.839Z,93891.28
2022-08-05T07:59:53.626Z,93897.19
2022-08-05T08:00:55.437Z,93891.56
2022-08-05T08:01:57.639Z,93898.00
2022-08-05T08:03:14.756Z,93905.81
2022-08-05T08:04:17.322Z,93902.84
2022-08-05T08:05:39.528Z,93903.56
2022-08-05T08:06:41.674Z,93893.22
2022-08-05T08:08:00.201Z,93915.47
2022-08-05T08:09:02.094Z,93897.34
2022-08-05T08:10:05.731Z,93916.69
2022-08-05T08:11:08.972Z,93914.72
2022-08-05T08:12:35.236Z,93911.88
2022-08-05T08:13:43.003Z,93908.22
2022-08-05T08:14:51.232Z,93930.00
2022-08-05T08:16:34.458Z,93905.78
2022-08-05T08:17:16.202Z,93920.88
2022-08-05T08:18:18.092Z,93912.00
2022-08-05T08:20:22.361Z,93927.09
2022-08-05T08:21:03.231Z,93911.47
2022-08-05T08:22:05.517Z,93920.38
2022-08-05T08:24:00.011Z,93913.91
2022-08-05T08:24:51.547Z,93914.50
2022-08-05T08:25:59.714Z,93919.41
2022-08-05T08:27:06.905Z,93932.09
2022-08-05T08:28:18.062Z,93925.84
2022-08-05T08:29:45.310Z,93921.97
2022-08-05T08:30:47.704Z,93932.75
2022-08-05T08:31:52.003Z,93944.66
2022-08-05T08:32:53.535Z,93944.22
2022-08-05T08:33:55.109Z,93944.00
2022-08-05T08:34:57.702Z,93944.31
2022-08-05T08:36:18.430Z,93953.19
2022-08-05T08:37:21.039Z,93947.75
2022-08-05T08:38:35.574Z,93947.13
2022-08-05T08:39:38.147Z,93947.75
2022-08-05T08:40:51.530Z,93950.28
2022-08-05T08:42:00.115Z,93950.63
2022-08-05T08:44:56.503Z,93948.97
2022-08-05T08:45:19.194Z,93968.31
2022-08-05T08:45:54.023Z,93963.72
2022-08-05T08:46:56.916Z,93964.19
2022-08-05T08:48:10.478Z,93966.16
2022-08-05T08:50:12.841Z,93968.66
2022-08-05T08:51:03.977Z,93972.09
2022-08-05T08:52:13.670Z,93972.91
2022-08-05T08:53:17.420Z,93972.31
2022-08-05T08:54:20.992Z,93976.31
2022-08-05T08:55:32.185Z,93983.06
2022-08-05T08:56:51.024Z,93968.00
2022-08-05T08:57:58.041Z,93973.72
2022-08-05T08:59:00.999Z,93969.91
2022-08-05T09:00:04.933Z,93969.75
2022-08-05T09:01:10.892Z,93974.22
2022-08-05T09:02:20.818Z,93975.28
2022-08-05T09:03:22.606Z,93973.66
2022-08-05T09:04:30.704Z,93979.22
2022-08-05T09:05:38.991Z,93983.72
2022-08-05T09:06:54.223Z,93974.06
2022-08-05T09:07:57.823Z,93976.59
2022-08-05T09:09:01.951Z,93981.38
2022-08-05T09:10:04.031Z,93974.28
2022-08-05T09:11:07.382Z,93975.06
2022-08-05T09:12:20.570Z,93973.13
2022-08-05T09:13:31.942Z,93974.19
2022-08-05T09:14:56.546Z,93968.66
2022-08-05T09:16:03.163Z,93967.19
2022-08-05T09:17:08.183Z,93975.22
2022-08-05T09:18:13.430Z,93978.78
2022-08-05T09:19:15.236Z,93967.78
2022-08-05T09:20:36.435Z,93972.13
2022-08-05T09:22:23.040Z,93975.03
2022-08-05T09:23:09.799Z,93978.75
2022-08-05T09:24:20.889Z,93979.28
2022-08-05T09:26:02.193Z,93991.38
2022-08-05T09:26:47.874Z,93992.72
2022-08-05T09:28:04.668Z,93993.09
2022-08-05T09:29:09.075Z,93987.66
2022-08-05T09:30:16.460Z,93980.88
2022-08-05T09:31:44.060Z,93987.78
2022-08-05T09:32:46.673Z,93975.84
2022-08-05T09:33:55.285Z,93976.53
2022-08-05T09:34:57.780Z,93968.94
2022-08-05T09:36:11.582Z,93964.69
2022-08-05T09:37:19.117Z,93972.28
2022-08-05T09:38:55.927Z,93967.28
2022-08-05T09:39:58.863Z,93972.59
2022-08-05T09:41:05.559Z,93970.44
2022-08-05T09:42:11.413Z,93950.28
2022-08-05T09:43:28.195Z,93962.81
2022-08-05T09:44:50.467Z,93961.09
2022-08-05T09:46:07.887Z,93952.38
2022-08-05T09:47:15.633Z,93963.25
2022-08-05T09:48:22.083Z,93967.97
2022-08-05T09:49:54.785Z,93963.25
2022-08-05T09:50:57.538Z,93957.56
2022-08-05T09:51:59.066Z,93958.66
2022-08-05T09:53:00.580Z,93951.06
2022-08-05T09:54:02.746Z,93953.81
2022-08-05T09:55:55.584Z,93941.69
2022-08-05T09:56:29.467Z,93949.56
2022-08-05T09:57:39.636Z,93943.88
2022-08-05T09:58:56.015Z,93937.75
2022-08-05T09:59:58.901Z,93946.59
2022-08-05T10:01:13.260Z,93942.44
2022-08-05T10:02:33.613Z,93937.31
2022-08-05T10:03:56.889Z,93943.13
2022-08-05T10:05:04.079Z,93937.69
2022-08-05T10:06:15.655Z,93947.66
2022-08-05T10:07:20.781Z,93938.81
2022-08-05T10:08:39.353Z,93944.84
2022-08-05T10:10:13.833Z,93940.69
2022-08-05T10:11:17.526Z,93940.69
2022-08-05T10:12:33.437Z,93945.94
2022-08-05T10:13:45.799Z,93943.47
2022-08-05T10:14:50.114Z,93943.34
2022-08-05T10:15:56.379Z,93929.47
2022-08-05T10:17:36.964Z,93934.53
2022-08-05T10:18:37.346Z,93935.38
2022-08-05T10:20:02.794Z,93940.09
2022-08-05T10:21:08.361Z,93944.19
2022-08-05T10:22:15.666Z,93941.78
2022-08-05T10:23:55.567Z,93941.81
2022-08-05T10:24:54.444Z,93945.06
2022-08-05T10:25:56.701Z,93942.78
2022-08-05T10:27:00.311Z,93939.72
2022-08-05T10:28:13.723Z,93940.50
2022-08-05T10:30:41.068Z,93926.69
2022-08-05T10:32:53.122Z,93926.78
2022-08-05T10:32:53.843Z,93931.06
2022-08-05T10:33:36.727Z,93930.63
2022-08-05T10:34:41.938Z,93928.31
2022-08-05T10:35:44.345Z,93926.19
2022-08-05T10:36:46.573Z,93935.06
2022-08-05T10:37:48.949Z,93936.81
2022-08-05T10:39:00.557Z,93933.91
2022-08-05T10:40:18.236Z,93936.69
2022-08-05T10:41:28.089Z,93943.91
2022-08-05T10:42:52.121Z,93938.03
2022-08-05T10:43:59.520Z,93938.97
2022-08-05T10:45:01.900Z,93934.41
2022-08-05T10:46:24.043Z,93931.59
2022-08-05T10:47:32.514Z,93932.94
2022-08-05T10:48:52.807Z,93928.41
2022-08-05T10:50:35.249Z,93926.41
2022-08-05T10:51:29.128Z,93938.34
2022-08-05T10:52:39.290Z,93931.63
2022-08-05T10:53:55.592Z,93936.34
2022-08-05T10:55:05.253Z,93932.63
2022-08-05T10:56:21.031Z,93927.50
2022-08-05T10:57:31.747Z,93932.69
2022-08-05T10:58:47.818Z,93934.28
2022-08-05T11:00:12.061Z,93930.34
2022-08-05T11:01:54.823Z,93938.31
2022-08-05T11:03:23.063Z,93935.16
2022-08-05T11:04:30.895Z,93941.16
2022-08-05T11:05:33.514Z,93940.44
2022-08-05T11:06:56.076Z,93933.88
2022-08-05T11:08:02.916Z,93943.41
2022-08-05T11:09:18.507Z,93936.34
2022-08-05T11:10:27.609Z,93933.25
2022-08-05T11:11:44.675Z,93935.03
2022-08-05T11:12:55.675Z,93929.84
2022-08-05T11:13:58.553Z,93937.81
2022-08-05T11:15:19.130Z,93932.03
2022-08-05T11:16:23.392Z,93929.03
2022-08-05T11:17:59.417Z,93935.09
2022-08-05T11:20:16.825Z,93940.94
2022-08-05T11:20:48.457Z,93947.09
2022-08-05T11:21:49.983Z,93947.16
2022-08-05T11:22:53.969Z,93942.81
2022-08-05T11:24:30.014Z,93942.50
2022-08-05T11:26:04.789Z,93948.91
2022-08-05T11:27:45.813Z,93934.34
2022-08-05T11:28:53.313Z,93932.88
2022-08-05T11:29:59.429Z,93932.38
2022-08-05T11:31:54.230Z,93931.22
2022-08-05T11:32:50.877Z,93933.44
2022-08-05T11:33:56.313Z,93935.09
2022-08-05T11:35:00.155Z,93935.34
2022-08-05T11:36:07.972Z,93921.66
2022-08-05T11:38:28.002Z,93928.13
2022-08-05T11:38:51.959Z,93922.72
2022-08-05T11:40:00.528Z,93928.09
2022-08-05T11:41:34.349Z,93925.16
2022-08-05T11:42:28.377Z,93918.69
2022-08-05T11:43:58.459Z,93926.59
2022-08-05T11:45:00.740Z,93920.22
2022-08-05T11:46:15.318Z,93920.94
2022-08-05T11:47:48.903Z,93921.13
2022-08-05T11:48:46.288Z,93924.00
2022-08-05T11:49:50.957Z,93920.69
2022-08-05T11:50:54.057Z,93926.34
2022-08-05T11:51:57.577Z,93916.84
2022-08-05T11:53:04.584Z,93917.97
2022-08-05T11:54:13.888Z,93922.19
2022-08-05T11:55:15.904Z,93920.72
2022-08-05T11:56:17.642Z,93923.72
2022-08-05T11:57:25.613Z,93916.75
2022-08-05T11:58:30.551Z,93918.88
2022-08-05T11:59:32.540Z,93922.81
2022-08-05T12:01:01.949Z,93920.38
2022-08-05T12:02:23.757Z,93918.41
2022-08-05T12:03:31.585Z,93905.31
2022-08-05T12:04:43.112Z,93915.09
2022-08-05T12:06:02.676Z,93910.44
2022-08-05T12:07:06.872Z,93906.31
2022-08-05T12:08:11.855Z,93913.28
2022-08-05T12:09:52.747Z,93907.53
2022-08-05T12:10:49.661Z,93911.41
2022-08-05T12:11:54.411Z,93906.03
2022-08-05T12:13:03.903Z,93896.50
2022-08-05T12:14:18.729Z,93902.47
2022-08-05T12:15:20.985Z,93897.00
2022-08-05T12:16:46.484Z,93901.31
2022-08-05T12:18:03.878Z,93899.47
2022-08-05T12:20:26.352Z,93897.34
2022-08-05T12:20:41.544Z,93899.28
2022-08-05T12:21:45.588Z,93892.91
2022-08-05T12:22:48.849Z,93901.63
2022-08-05T12:23:57.275Z,93892.03
2022-08-05T12:25:01.865Z,93902.13
2022-08-05T12:26:03.484Z,93900.00
2022-08-05T12:27:09.699Z,93892.44
2022-08-05T12:28:33.947Z,93897.34
2022-08-05T12:29:37.971Z,93889.41
2022-08-05T12:30:45.908Z,93892.91
2022-08-05T12:31:53.442Z,93884.13
2022-08-05T12:32:56.405Z,93895.97
2022-08-05T12:33:58.390Z,93892.34
2022-08-05T12:35:00.205Z,93896.13
2022-08-05T12:36:08.343Z,93896.22
2022-08-05T12:37:16.991Z,93893.84
2022-08-05T12:38:22.325Z,93893.41
2022-08-05T12:39:37.519Z,93894.47
2022-08-05T12:40:43.577Z,93888.81
2022-08-05T12:42:09.517Z,93888.88
2022-08-05T12:43:20.654Z,93888.25
2022-08-05T12:44:33.837Z,93885.69
2022-08-05T12:45:42.515Z,93882.19
2022-08-05T12:46:53.974Z,93885.38
2022-08-05T12:48:01.528Z,93887.03
2022-08-05T12:49:17.045Z,93880.84
2022-08-05T12:50:21.123Z,93869.66
2022-08-05T12:52:14.160Z,93883.19
2022-08-05T12:52:55.418Z,93879.16
2022-08-05T12:54:02.725Z,93884.88
2022-08-05T12:55:16.905Z,93886.34
2022-08-05T12:56:35.297Z,93877.94
2022-08-05T12:58:50.804Z,93877.25
2022-08-05T12:59:20.997Z,93871.75
2022-08-05T13:02:00.256Z,93874.88
2022-08-05T13:02:01.798Z,93871.50
2022-08-05T13:03:12.341Z,93869.69
2022-08-05T13:04:20.906Z,93872.69
2022-08-05T13:05:23.146Z,93865.19
2022-08-05T13:06:26.246Z,93869.63
2022-08-05T13:07:57.306Z,93861.81
2022-08-05T13:08:52.706Z,93865.44
2022-08-05T13:09:57.965Z,93860.13
2022-08-05T13:11:00.755Z,93863.59
2022-08-05T13:12:04.420Z,93857.53
2022-08-05T13:13:09.706Z,93862.41
2022-08-05T13:14:36.917Z,93861.09
2022-08-05T13:15:49.233Z,93862.16
2022-08-05T13:16:56.352Z,93853.56
2022-08-05T13:17:59.336Z,93856.63
2022-08-05T13:19:01.620Z,93852.25
2022-08-05T13:20:05.570Z,93850.53
2022-08-05T13:21:08.560Z,93854.59
2022-08-05T13:22:12.219Z,93854.13
2022-08-05T13:23:13.843Z,93857.81
2022-08-05T13:24:44.989Z,93852.38
2022-08-05T13:25:52.744Z,93844.78
2022-08-05T13:27:01.424Z,93848.44
2022-08-05T13:28:03.490Z,93852.94
2022-08-05T13:29:05.469Z,93843.31
2022-08-05T13:30:34.571Z,93858.69
2022-08-05T13:31:34.072Z,93840.81
2022-08-05T13:32:53.708Z,93845.25
2022-08-05T13:34:23.399Z,93836.63
2022-08-05T13:35:22.250Z,93837.97
2022-08-05T13:36:33.399Z,93833.53
2022-08-05T13:37:35.426Z,93835.84
2022-08-05T13:38:38.256Z,93832.69
2022-08-05T13:40:16.783Z,93824.81
2022-08-05T13:41:07.480Z,93832.47
2022-08-05T13:42:14.649Z,93832.19
2022-08-05T13:43:21.959Z,93832.97
2022-08-05T13:44:23.815Z,93820.19
2022-08-05T13:45:33.990Z,93832.34